Flight Track Log - Related Links

Times and Time Zones

All times are in EDT time to prevent confusion due to time zone crossing. See the DAL907 flight status page for this flight to view local times or setup timezone preferences in your user account.

Time Position Orientation Groundspeed Altitude Reporting Facility
EDT Latitude Longitude Course Direction KTS MPH feet Rate Location/Type
Tue 03:18:43 PM 33.6667 -84.5000 342° North 214 246 3,600  Level Atlanta TRACON
Tue 03:19:37 PM 33.6833 -84.5667 287° West 262 302 6,500 2,123 Climbing Atlanta TRACON
Tue 03:20:00 PM 33.8756 -84.5667 North  Level FlightAware Approximate
Tue 03:21:00 PM 33.9794 -84.6050 342° North  Level FlightAware Approximate
Tue 03:21:58 PM 33.8597 -84.5842 355° North 285 328 10,500  Level Atlanta Center
Tue 03:22:00 PM 34.0828 -84.6463 342° North  Level FlightAware Approximate
Tue 03:22:58 PM 33.9558 -84.6047 350° North 321 369 12,200  Level Atlanta Center
Tue 03:23:00 PM 34.1861 -84.6878 342° North  Level FlightAware Approximate
Tue 03:23:58 PM 34.0433 -84.6381 342° North 353 406 14,700  Level Atlanta Center
Tue 03:24:58 PM 34.1475 -84.6739 344° North 379 436 17,400 2,650 Climbing Atlanta Center
Tue 03:25:58 PM 34.2536 -84.7172 341° North 391 450 20,000 2,450 Climbing Atlanta Center
Tue 03:26:58 PM 34.3533 -84.7861 330° Northwest 398 458 22,300 2,050 Climbing Atlanta Center
Tue 03:27:58 PM 34.4511 -84.8625 327° Northwest 411 473 24,100 1,850 Climbing Atlanta Center
Tue 03:28:58 PM 34.5611 -84.9417 329° Northwest 421 484 26,000 950 Climbing Atlanta Center
Tue 03:29:58 PM 34.6606 -85.0186 328° Northwest 421 484 26,000  Level Atlanta Center
Tue 03:30:58 PM 34.7478 -85.0878 327° Northwest 415 478 26,000  Level Atlanta Center
Tue 03:31:58 PM 34.8472 -85.1650 327° Northwest 415 478 26,000  Level Atlanta Center
Tue 03:32:57 PM 34.9447 -85.2397 328° Northwest 415 478 26,000 -632 Level Atlanta Center
Tue 03:35:08 PM 35.1653 -85.4142 327° Northwest 417 480 24,000 -942 Descending Memphis Center
Tue 03:36:08 PM 35.2467 -85.5164 314° West 412 474 23,000 -1,450 Descending Memphis Center
Tue 03:37:08 PM 35.3233 -85.6161 313° West 412 474 21,100 -1,700 Descending Memphis Center
Tue 03:38:08 PM 35.3981 -85.7111 314° West 406 467 19,600 -1,600 Descending Memphis Center
Tue 03:39:08 PM 35.4683 -85.8067 312° West 391 450 17,900 -1,650 Descending Memphis Center
Tue 03:40:08 PM 35.5403 -85.8972 314° West 386 444 16,300 -1,950 Descending Memphis Center
Tue 03:41:08 PM 35.6061 -85.9881 312° West 372 428 14,000 -2,150 Descending Memphis Center
Tue 03:42:08 PM 35.6697 -86.0792 311° West 366 421 12,000 -1,900 Descending Memphis Center
Tue 03:43:08 PM 35.7231 -86.1736 305° West 347 399 10,200 -1,350 Descending Memphis Center
Tue 03:44:08 PM 35.7656 -86.2586 302° West 315 362 9,300 -1,350 Descending Memphis Center
Tue 03:45:08 PM 35.8097 -86.3331 306° West 286 329 7,500 -1,550 Descending Memphis Center
Tue 03:46:08 PM 35.8519 -86.4131 303° West 276 318 6,200 -1,233 Descending Memphis Center
Tue 03:48:08 PM 35.9336 -86.5603 304° West 266 306 3,800 -1,233 Descending Memphis Center
Tue 03:49:08 PM 35.9733 -86.6328 304° West 266 306 2,500 -1,300 Descending Memphis Center

Login

Don't have an account? Register now (free) for customized features, flight alerts, and more!